Time;durP1;ratioP1;P1;durP2;ratioP2;P2;SDS_P1;SDS_P2;PMS_P1;PMS_P2;Temp;Humidity;BMP_temperature;BMP_pressure;BME280_temperature;BME280_humidity;BME280_pressure;Samples;Min_cycle;Max_cycle;Signal;HPM_P1;HPM_P2
2023/10/24 00:02:19;;;;;;;;;11.33;10.00;;;;;16.55;87.20;99706.50;6191322;22;45369;-84
2023/10/24 00:04:45;;;;;;;;;10.67;9.00;;;;;16.56;87.13;99701.09;6218119;22;45285;-84
2023/10/24 00:07:10;;;;;;;;;10.00;10.00;;;;;16.59;87.38;99709.03;6218951;22;45753;-84
2023/10/24 00:09:35;;;;;;;;;11.00;9.00;;;;;16.58;87.25;99709.06;6191136;22;46688;-84
2023/10/24 00:12:03;;;;;;;;;12.00;10.67;;;;;16.60;87.16;99700.06;6217824;22;44919;-84
2023/10/24 00:14:29;;;;;;;;;10.67;10.67;;;;;16.65;86.97;99697.25;6216846;22;44811;-84
2023/10/24 00:16:54;;;;;;;;;10.67;10.33;;;;;16.68;86.83;99683.72;6220877;22;45366;-83
2023/10/24 00:19:20;;;;;;;;;11.33;9.00;;;;;16.66;86.95;99673.97;6192020;22;47374;-84
2023/10/24 00:21:45;;;;;;;;;10.00;9.33;;;;;16.67;87.11;99676.63;6192774;22;45280;-83
2023/10/24 00:24:11;;;;;;;;;10.00;10.00;;;;;16.66;87.04;99676.66;6191784;22;45128;-83
2023/10/24 00:26:36;;;;;;;;;13.00;11.67;;;;;16.67;87.14;99673.06;6193583;22;45407;-82
2023/10/24 00:29:03;;;;;;;;;12.00;10.67;;;;;16.89;87.52;99682.28;6219913;22;47217;-82
2023/10/24 00:31:29;;;;;;;;;9.33;9.33;;;;;16.72;87.40;99680.03;6194327;22;45885;-83
2023/10/24 00:33:55;;;;;;;;;2.67;2.00;;;;;16.67;87.49;99678.44;6191635;22;45110;-84
2023/10/24 00:36:21;;;;;;;;;13.67;10.67;;;;;16.71;87.47;99680.09;6219983;22;45488;-84
2023/10/24 00:38:46;;;;;;;;;11.67;11.00;;;;;16.71;87.57;99680.97;6218284;22;45396;-83
2023/10/24 00:41:13;;;;;;;;;13.00;13.00;;;;;16.90;88.26;99689.41;6218691;22;45376;-83
2023/10/24 00:43:38;;;;;;;;;13.33;12.33;;;;;16.72;88.05;99681.84;6189656;22;45381;-83
2023/10/24 00:46:04;;;;;;;;;12.67;11.33;;;;;16.78;88.16;99681.69;6189780;22;45416;-82
2023/10/24 00:48:32;;;;;;;;;14.67;13.67;;;;;16.73;87.95;99678.25;6189757;22;47294;-83
2023/10/24 00:50:58;;;;;;;;;14.33;13.33;;;;;16.74;87.85;99680.00;6203527;22;45354;-84
2023/10/24 00:53:24;;;;;;;;;20.67;16.33;;;;;16.74;88.47;99699.69;6220279;22;45245;-83
2023/10/24 00:55:51;;;;;;;;;16.00;15.00;;;;;16.86;88.51;99682.38;6222881;22;45403;-84
2023/10/24 00:58:17;;;;;;;;;12.67;12.67;;;;;16.74;88.17;99688.97;6219755;22;46636;-84
2023/10/24 01:00:45;;;;;;;;;13.33;11.67;;;;;16.95;88.21;99690.19;6219451;22;45393;-83
2023/10/24 01:03:11;;;;;;;;;12.67;12.67;;;;;16.85;88.28;99677.94;6190330;22;45387;-83
2023/10/24 01:05:38;;;;;;;;;15.00;13.00;;;;;16.88;88.05;99666.22;6192471;22;45353;-84
2023/10/24 01:08:03;;;;;;;;;12.33;10.33;;;;;16.87;88.20;99670.72;6217542;22;47465;-84
2023/10/24 01:10:29;;;;;;;;;14.33;12.33;;;;;16.87;88.08;99664.47;6220076;22;45262;-84
2023/10/24 01:12:54;;;;;;;;;13.33;13.33;;;;;16.83;88.27;99663.69;6224209;22;45298;-81
2023/10/24 01:15:20;;;;;;;;;14.33;13.00;;;;;16.83;88.06;99655.63;6238146;22;44806;-80
2023/10/24 01:17:50;;;;;;;;;17.00;15.00;;;;;17.00;88.12;99656.00;6237421;22;45264;-81
2023/10/24 01:20:15;;;;;;;;;17.00;14.00;;;;;16.79;88.28;99662.84;6211299;22;45221;-80
2023/10/24 01:22:43;;;;;;;;;15.00;13.00;;;;;16.88;88.46;99661.72;6211241;22;44844;-81
2023/10/24 01:25:13;;;;;;;;;12.67;12.33;;;;;16.99;88.43;99667.66;6238075;22;44784;-81
2023/10/24 01:27:42;;;;;;;;;13.67;12.00;;;;;16.93;88.42;99665.16;6210911;22;47047;-81
2023/10/24 01:30:10;;;;;;;;;12.67;12.67;;;;;16.98;88.43;99678.44;6237656;22;45254;-81
2023/10/24 01:32:35;;;;;;;;;15.00;12.33;;;;;16.85;88.20;99675.25;6237885;22;44986;-81
2023/10/24 01:35:00;;;;;;;;;15.33;9.67;;;;;16.86;88.57;99674.31;6211736;22;44944;-80
2023/10/24 01:37:26;;;;;;;;;13.67;13.00;;;;;16.85;88.81;99674.38;6236047;22;47105;-81
2023/10/24 01:39:51;;;;;;;;;14.33;14.00;;;;;16.85;88.24;99675.25;6237708;22;44741;-80
2023/10/24 01:42:18;;;;;;;;;13.00;13.00;;;;;16.97;88.46;99672.22;6238147;22;45135;-81
2023/10/24 01:44:43;;;;;;;;;15.33;13.00;;;;;16.80;88.82;99675.38;6226203;22;45072;-83
2023/10/24 01:47:09;;;;;;;;;13.00;13.00;;;;;16.85;88.90;99669.88;6217011;22;45161;-81
2023/10/24 01:49:34;;;;;;;;;15.67;14.00;;;;;16.82;88.72;99656.53;6222291;22;45389;-80
2023/10/24 01:51:59;;;;;;;;;13.00;11.00;;;;;16.79;89.02;99656.59;6234572;22;44801;-80
2023/10/24 01:57:53;;;;;;;;;11.67;11.67;;;;;17.06;88.90;99660.31;6237556;22;44918;-81
2023/10/24 02:00:20;;;;;;;;;14.67;14.67;;;;;16.83;89.42;99658.31;6233911;22;44717;-80
2023/10/24 02:02:45;;;;;;;;;14.67;14.67;;;;;16.85;89.23;99656.47;6210629;22;44714;-80
2023/10/24 02:05:12;;;;;;;;;15.33;15.33;;;;;16.94;88.81;99663.34;6237921;22;45283;-81
2023/10/24 02:07:38;;;;;;;;;18.00;16.67;;;;;16.95;88.74;99655.25;6237051;22;45253;-81
2023/10/24 02:10:04;;;;;;;;;13.00;12.67;;;;;17.07;89.05;99645.09;6236975;22;44760;-80
2023/10/24 02:12:30;;;;;;;;;13.00;13.00;;;;;16.99;88.87;99656.06;6210523;22;44848;-81
2023/10/24 02:14:55;;;;;;;;;13.33;11.33;;;;;17.06;88.65;99651.38;6235620;22;45149;-82
2023/10/24 02:17:21;;;;;;;;;18.67;16.67;;;;;16.95;88.88;99655.25;6210848;22;46950;-80
2023/10/24 02:19:46;;;;;;;;;11.00;11.00;;;;;16.92;89.26;99647.28;6237425;22;44854;-80
2023/10/24 02:22:11;;;;;;;;;15.67;15.67;;;;;16.98;89.24;99654.28;6237897;22;44737;-78
2023/10/24 02:24:37;;;;;;;;;15.33;12.67;;;;;16.91;89.41;99650.91;6212627;22;44854;-80
2023/10/24 02:27:02;;;;;;;;;18.00;14.67;;;;;16.95;89.59;99657.94;6238785;22;45188;-79
2023/10/24 02:29:32;;;;;;;;;12.33;12.33;;;;;17.14;89.80;99654.69;6238725;22;44782;-80
2023/10/24 02:31:57;;;;;;;;;11.00;10.67;;;;;16.99;89.18;99659.63;6211779;22;44907;-79
2023/10/24 02:34:23;;;;;;;;;16.33;13.33;;;;;17.02;89.32;99647.88;6212286;22;44941;-80
2023/10/24 02:39:23;;;;;;;;;14.67;13.33;;;;;17.08;89.03;99644.16;6218811;22;44839;-79
2023/10/24 02:41:49;;;;;;;;;15.33;14.00;;;;;17.13;89.26;99652.97;6243462;22;44782;-81
2023/10/24 02:44:16;;;;;;;;;11.67;11.33;;;;;17.05;89.14;99644.22;6269842;22;44843;-80
2023/10/24 02:46:42;;;;;;;;;13.67;13.67;;;;;17.13;89.35;99652.97;6269292;22;46459;-80
2023/10/24 02:49:07;;;;;;;;;12.00;12.00;;;;;17.12;89.36;99649.38;6269382;22;44693;-81
2023/10/24 02:51:36;;;;;;;;;12.00;12.00;;;;;17.30;89.72;99652.44;6269646;22;45053;-80
2023/10/24 02:54:02;;;;;;;;;10.00;10.00;;;;;17.16;89.26;99651.03;6222834;22;45011;-81
2023/10/24 02:56:27;;;;;;;;;15.00;13.67;;;;;17.12;89.66;99651.19;6239012;22;45516;-80
2023/10/24 02:58:52;;;;;;;;;13.67;13.67;;;;;17.17;89.69;99647.44;6212295;22;44804;-80
2023/10/24 03:01:18;;;;;;;;;15.33;13.33;;;;;17.09;89.66;99640.56;6211688;22;44855;-81
2023/10/24 03:03:43;;;;;;;;;13.00;12.00;;;;;17.11;89.76;99641.38;6237668;22;44827;-80
2023/10/24 03:06:14;;;;;;;;;8.33;8.33;;;;;17.31;89.77;99638.06;6211105;22;46925;-81
2023/10/24 03:08:39;;;;;;;;;13.33;13.00;;;;;17.11;89.73;99636.00;6211638;22;45144;-81
2023/10/24 03:11:05;;;;;;;;;11.67;11.67;;;;;17.08;89.98;99626.22;6238447;22;44920;-80
2023/10/24 03:13:31;;;;;;;;;15.33;12.33;;;;;17.27;89.85;99631.91;6212109;22;44868;-80
2023/10/24 03:16:02;;;;;;;;;13.67;12.00;;;;;17.35;89.90;99643.31;6238181;22;45230;-81
2023/10/24 03:18:27;;;;;;;;;13.33;12.00;;;;;17.15;90.18;99640.34;6238771;22;44756;-80
2023/10/24 03:20:59;;;;;;;;;16.67;12.33;;;;;17.13;90.31;99636.84;6238672;22;44792;-80
2023/10/24 03:23:24;;;;;;;;;11.67;10.00;;;;;17.13;90.02;99632.34;6237873;22;45353;-81
2023/10/24 03:25:51;;;;;;;;;14.00;10.67;;;;;17.17;90.61;99630.44;6211334;22;47320;-79
2023/10/24 03:28:17;;;;;;;;;15.33;12.00;;;;;17.14;90.56;99625.16;6239632;22;44734;-81
2023/10/24 03:30:43;;;;;;;;;11.00;11.00;;;;;17.17;90.55;99636.69;6239066;22;44796;-81
2023/10/24 03:33:08;;;;;;;;;13.67;11.67;;;;;17.13;90.94;99634.16;6238291;22;44740;-81
2023/10/24 03:35:34;;;;;;;;;12.00;10.67;;;;;17.11;91.03;99636.88;6211207;22;47034;-80
2023/10/24 03:38:01;;;;;;;;;12.33;11.33;;;;;17.14;91.17;99636.78;6238460;22;44813;-81
2023/10/24 03:40:29;;;;;;;;;12.33;12.33;;;;;17.31;91.25;99638.06;6239009;22;44779;-79
2023/10/24 03:42:54;;;;;;;;;13.33;12.33;;;;;17.16;91.51;99637.59;6211220;22;44749;-79
2023/10/24 03:45:20;;;;;;;;;13.67;13.67;;;;;17.15;91.54;99645.72;6211262;22;46939;-79
2023/10/24 03:47:46;;;;;;;;;10.00;10.00;;;;;17.18;91.37;99643.81;6238050;22;45091;-80
2023/10/24 03:50:12;;;;;;;;;14.33;11.00;;;;;17.09;91.14;99637.88;6210590;22;44882;-80
2023/10/24 03:52:37;;;;;;;;;10.67;10.67;;;;;17.15;91.21;99640.34;6238393;22;44753;-81
2023/10/24 03:55:04;;;;;;;;;13.33;12.00;;;;;17.14;91.55;99638.59;6210431;22;47063;-80
2023/10/24 03:57:29;;;;;;;;;13.00;11.67;;;;;17.14;91.31;99641.28;6238315;22;44757;-79
2023/10/24 03:59:55;;;;;;;;;10.67;9.67;;;;;17.23;91.41;99642.78;6211340;22;45008;-80
2023/10/24 04:02:20;;;;;;;;;14.00;11.33;;;;;17.16;91.10;99644.78;6238086;22;45088;-81
2023/10/24 04:04:46;;;;;;;;;10.00;9.67;;;;;17.17;91.67;99636.69;6211625;22;47363;-79
2023/10/24 04:07:11;;;;;;;;;11.67;8.33;;;;;17.16;91.23;99634.03;6238314;22;44961;-81
2023/10/24 04:09:37;;;;;;;;;9.00;9.00;;;;;17.17;91.33;99635.81;6232264;22;45305;-83
2023/10/24 04:12:03;;;;;;;;;7.67;6.00;;;;;17.19;91.35;99626.78;6192276;22;45377;-84
2023/10/24 04:14:29;;;;;;;;;8.67;8.67;;;;;17.08;91.73;99628.91;6218413;22;45437;-85
2023/10/24 04:16:56;;;;;;;;;8.67;8.67;;;;;17.20;92.25;99622.28;6220387;22;45337;-84
2023/10/24 04:19:22;;;;;;;;;9.00;9.00;;;;;17.06;92.20;99628.06;6220019;22;45349;-85
2023/10/24 04:21:47;;;;;;;;;8.00;8.00;;;;;17.05;92.18;99629.00;6219651;22;45449;-85
2023/10/24 04:24:12;;;;;;;;;4.33;4.33;;;;;17.03;92.60;99621.91;6192013;22;46925;-85
2023/10/24 04:26:38;;;;;;;;;8.33;5.33;;;;;17.05;92.34;99629.00;6190220;22;45402;-85
2023/10/24 04:29:05;;;;;;;;;6.00;6.00;;;;;17.17;92.65;99634.00;6190559;22;45280;-85
2023/10/24 04:31:30;;;;;;;;;10.00;8.33;;;;;17.00;92.29;99634.50;6189821;22;45356;-85
2023/10/24 04:33:56;;;;;;;;;9.00;8.00;;;;;17.05;92.49;99642.44;6219049;22;45989;-85
2023/10/24 04:36:22;;;;;;;;;6.67;5.00;;;;;17.00;92.70;99629.13;6192603;22;44766;-85
2023/10/24 04:38:47;;;;;;;;;7.00;7.00;;;;;17.02;92.58;99626.41;6191142;22;45769;-86
2023/10/24 04:41:13;;;;;;;;;7.00;7.00;;;;;17.10;92.19;99644.97;6218970;22;44836;-86
2023/10/24 04:43:38;;;;;;;;;6.00;6.00;;;;;17.11;92.13;99642.25;6191007;22;46828;-85
2023/10/24 04:46:03;;;;;;;;;10.33;9.00;;;;;17.08;92.19;99636.97;6217270;22;45349;-85
2023/10/24 04:48:29;;;;;;;;;8.00;6.00;;;;;17.05;92.29;99637.06;6191283;22;45428;-85
2023/10/24 04:51:00;;;;;;;;;8.67;6.67;;;;;17.29;92.12;99624.69;6190868;22;45521;-85
2023/10/24 04:53:28;;;;;;;;;8.33;8.33;;;;;16.98;92.41;99620.22;6189065;22;47027;-85
2023/10/24 04:55:54;;;;;;;;;6.00;6.00;;;;;17.00;92.20;99634.50;6192217;22;44870;-85
2023/10/24 04:58:19;;;;;;;;;5.00;5.00;;;;;17.09;92.67;99643.22;6192965;22;45005;-86
2023/10/24 05:00:46;;;;;;;;;5.00;4.33;;;;;17.20;92.74;99633.03;6192929;22;45273;-85
2023/10/24 05:03:13;;;;;;;;;4.00;4.00;;;;;17.17;92.60;99625.06;6190646;22;48498;-85
2023/10/24 05:05:38;;;;;;;;;4.00;4.00;;;;;17.03;92.67;99632.66;6188114;22;45356;-85
2023/10/24 05:08:07;;;;;;;;;0.67;0.67;;;;;17.06;92.43;99637.94;6217244;22;45316;-86
2023/10/24 05:10:32;;;;;;;;;5.67;4.33;;;;;17.07;92.37;99639.72;6191130;22;45376;-84
2023/10/24 05:13:00;;;;;;;;;6.00;4.33;;;;;17.24;92.60;99632.00;6228455;22;45297;-81
2023/10/24 05:15:26;;;;;;;;;4.67;4.67;;;;;17.06;92.06;99621.81;6237088;22;44783;-80
2023/10/24 05:17:51;;;;;;;;;3.00;3.00;;;;;17.10;92.00;99628.84;6210200;22;44927;-81
2023/10/24 05:20:17;;;;;;;;;1.00;1.00;;;;;17.09;92.03;99635.19;6237056;22;44738;-81
2023/10/24 05:22:44;;;;;;;;;4.00;4.00;;;;;17.06;91.85;99621.81;6210057;22;47321;-81
2023/10/24 05:25:09;;;;;;;;;3.33;3.33;;;;;17.07;91.79;99631.66;6236180;22;44738;-79
2023/10/24 05:27:34;;;;;;;;;4.00;3.67;;;;;17.04;91.91;99618.31;6210184;22;45385;-80
2023/10/24 05:30:00;;;;;;;;;3.00;3.00;;;;;17.09;91.73;99611.00;6210418;22;44873;-81
2023/10/24 05:32:25;;;;;;;;;7.00;5.67;;;;;17.10;92.17;99618.97;6234866;22;45510;-80
2023/10/24 05:34:51;;;;;;;;;5.67;4.33;;;;;17.07;91.92;99607.47;6207257;22;45261;-79
2023/10/24 05:37:16;;;;;;;;;6.00;4.33;;;;;17.02;92.05;99607.59;6206275;22;44809;-79
2023/10/24 05:43:04;;;;;;;;;6.00;6.00;;;;;16.99;92.02;99613.09;6232592;22;44806;-80
2023/10/24 05:45:30;;;;;;;;;4.00;4.00;;;;;16.90;92.11;99614.22;6206245;22;44893;-79
2023/10/24 05:47:55;;;;;;;;;7.00;4.33;;;;;16.89;92.23;99619.66;6233757;22;44745;-80
2023/10/24 05:50:21;;;;;;;;;7.33;5.33;;;;;16.97;92.11;99629.22;6204978;22;45222;-81
2023/10/24 05:52:51;;;;;;;;;5.00;5.00;;;;;17.22;92.05;99630.28;6232607;22;45156;-79
2023/10/24 05:55:17;;;;;;;;;8.33;4.67;;;;;17.13;92.35;99629.66;6230238;22;44754;-78
2023/10/24 05:57:43;;;;;;;;;4.33;4.33;;;;;17.02;92.34;99628.22;6207060;22;45704;-80
2023/10/24 06:00:09;;;;;;;;;7.33;5.00;;;;;17.16;91.99;99628.66;6234891;22;44879;-80
2023/10/24 06:02:35;;;;;;;;;4.00;4.00;;;;;17.00;91.93;99626.44;6207118;22;46554;-80
2023/10/24 06:05:04;;;;;;;;;7.00;7.00;;;;;17.24;91.38;99632.00;6230893;22;45375;-80
2023/10/24 06:07:29;;;;;;;;;6.33;6.33;;;;;17.04;91.27;99635.28;6194664;22;44812;-80
2023/10/24 06:09:55;;;;;;;;;7.33;7.33;;;;;17.02;90.91;99653.25;6194410;22;45471;-81
2023/10/24 06:12:20;;;;;;;;;5.00;5.00;;;;;17.07;91.21;99655.84;6224373;22;47680;-85
2023/10/24 06:14:47;;;;;;;;;8.67;8.00;;;;;17.00;90.94;99639.88;6229772;22;45100;-86
2023/10/24 06:17:17;;;;;;;;;7.00;7.00;;;;;17.03;90.95;99648.75;6200056;22;45304;-86
2023/10/24 06:19:45;;;;;;;;;9.00;9.00;;;;;17.04;91.34;99650.53;6226293;22;44790;-83
2023/10/24 06:22:11;;;;;;;;;6.00;6.00;;;;;16.98;91.12;99655.16;6198236;22;46069;-86
2023/10/24 06:24:39;;;;;;;;;8.67;8.67;;;;;16.96;90.54;99665.06;6198770;22;44847;-86
2023/10/24 06:27:09;;;;;;;;;9.67;8.33;;;;;16.95;90.97;99660.63;6201386;22;44825;-87
2023/10/24 06:29:36;;;;;;;;;6.00;6.00;;;;;17.00;90.50;99672.09;6199491;22;45378;-84
2023/10/24 06:32:03;;;;;;;;;7.00;7.00;;;;;16.93;90.30;99669.66;6197340;22;46123;-84
2023/10/24 06:34:28;;;;;;;;;11.00;10.67;;;;;16.89;90.20;99676.94;6200442;22;44883;-85
2023/10/24 06:37:17;;;;;;;;;4.00;3.00;;;;;17.16;89.57;99679.72;6203442;22;45062;-86
2023/10/24 06:39:44;;;;;;;;;12.00;11.00;;;;;17.03;90.18;99670.25;6207043;22;44820;-86
2023/10/24 06:42:10;;;;;;;;;9.00;9.00;;;;;16.87;89.88;99680.59;6234344;22;45298;-84
2023/10/24 06:44:40;;;;;;;;;6.00;6.00;;;;;16.59;89.89;99638.38;6192839;22;46476;-85
2023/10/24 06:47:11;;;;;;;;;9.67;7.67;;;;;16.66;89.86;99649.81;6263590;22;45377;-86
2023/10/24 06:49:37;;;;;;;;;9.67;9.67;;;;;16.58;90.04;99650.91;6238496;22;44741;-85
2023/10/24 06:52:04;;;;;;;;;11.00;10.33;;;;;16.72;90.24;99684.53;6256380;22;45424;-85
2023/10/24 06:57:51;;;;;;;;;6.00;5.00;;;;;16.60;89.87;99688.44;6255595;22;45294;-86
2023/10/24 07:00:18;;;;;;;;;7.00;7.00;;;;;16.73;89.92;99686.31;6259841;22;44772;-88
2023/10/24 07:02:44;;;;;;;;;6.00;5.33;;;;;16.54;90.02;99694.88;6257926;22;45092;-86
2023/10/24 07:05:09;;;;;;;;;5.67;5.67;;;;;16.57;89.78;99710.00;6255017;22;44775;-85
2023/10/24 07:07:38;;;;;;;;;9.33;7.67;;;;;16.56;89.89;99701.09;6259149;22;45585;-87
2023/10/24 07:10:54;;;;;;;;;8.00;6.33;;;;;16.83;89.60;99705.78;6255436;22;45301;-87
2023/10/24 07:13:20;;;;;;;;;5.67;5.67;;;;;16.48;89.71;99708.47;6228332;22;46866;-85
2023/10/24 07:15:45;;;;;;;;;7.00;6.67;;;;;16.48;89.49;99720.97;6253582;22;45306;-88
2023/10/24 07:18:11;;;;;;;;;8.00;8.00;;;;;16.39;89.84;99712.25;6257175;22;45226;-89
2023/10/24 07:20:38;;;;;;;;;6.33;6.33;;;;;16.46;89.79;99723.72;6258060;22;45314;-88
2023/10/24 07:23:05;;;;;;;;;4.00;4.00;;;;;16.58;89.77;99728.78;6229730;22;47152;-86
2023/10/24 07:25:32;;;;;;;;;7.00;7.00;;;;;16.46;89.59;99731.78;6255059;22;44808;-87
2023/10/24 07:27:57;;;;;;;;;8.67;6.67;;;;;16.31;89.77;99724.13;6255409;22;45252;-86
2023/10/24 07:30:26;;;;;;;;;6.00;4.00;;;;;16.39;89.43;99738.22;6259194;22;45332;-87
2023/10/24 07:32:54;;;;;;;;;6.67;6.67;;;;;16.39;89.29;99748.94;6237549;22;47234;-86
2023/10/24 07:35:23;;;;;;;;;5.33;5.33;;;;;16.50;89.12;99736.16;6232057;22;45497;-87
2023/10/24 07:37:49;;;;;;;;;11.00;8.33;;;;;16.55;89.34;99733.31;6259314;22;44683;-86
2023/10/24 07:40:16;;;;;;;;;5.00;3.00;;;;;16.51;88.89;99734.34;6265265;22;44759;-88
2023/10/24 07:42:41;;;;;;;;;6.33;5.00;;;;;16.51;88.21;99732.53;6230540;22;47546;-88
2023/10/24 07:45:13;;;;;;;;;5.00;5.00;;;;;16.76;87.97;99737.22;6259962;22;44808;-89
2023/10/24 07:47:44;;;;;;;;;5.00;4.33;;;;;16.86;88.08;99737.88;6262744;22;44806;-85
2023/10/24 07:50:39;;;;;;;;;;;;;;;;;;;;;
2023/10/24 07:53:05;;;;;;;;;4.67;4.67;;;;;16.49;86.68;99701.28;6252156;22;74506;-88
2023/10/24 07:55:33;;;;;;;;;2.00;2.00;;;;;16.56;86.57;99717.19;6256758;22;45304;-87
2023/10/24 07:58:08;;;;;;;;;7.33;5.00;;;;;16.96;86.26;99737.56;6259030;22;45285;-86
2023/10/24 08:00:36;;;;;;;;;4.00;3.33;;;;;16.71;86.36;99747.22;6258348;22;45496;-87
2023/10/24 08:03:04;;;;;;;;;3.75;3.00;;;;;16.95;86.54;99749.25;6231407;22;46157;-86
2023/10/24 08:05:30;;;;;;;;;4.25;4.00;;;;;16.75;86.34;99746.22;6259522;22;45144;-85
2023/10/24 08:07:56;;;;;;;;;4.00;4.00;;;;;16.86;86.18;99721.78;6230307;22;45392;-86
2023/10/24 08:10:32;;;;;;;;;3.33;3.33;;;;;16.90;86.07;99713.59;6230943;22;45452;-87
2023/10/24 08:12:58;;;;;;;;;3.00;3.00;;;;;16.80;85.91;99731.75;6254477;22;46843;-86
2023/10/24 08:15:25;;;;;;;;;5.00;4.00;;;;;16.94;85.60;99707.19;6254643;22;45698;-87
2023/10/24 08:17:52;;;;;;;;;3.00;3.00;;;;;17.03;84.96;99756.22;6254636;22;45447;-87
2023/10/24 08:20:19;;;;;;;;;1.75;1.50;;;;;17.11;84.39;99749.72;6227501;22;44945;-86
2023/10/24 08:22:49;;;;;;;;;2.00;2.00;;;;;17.25;84.00;99740.34;6203749;22;47719;-88
2023/10/24 08:25:28;;;;;;;;;3.00;3.00;;;;;17.24;83.77;99730.53;6228799;22;44844;-87
2023/10/24 08:27:54;;;;;;;;;2.50;2.50;;;;;17.17;83.72;99759.41;6257144;22;45405;-89
2023/10/24 08:30:23;;;;;;;;;4.00;4.00;;;;;17.25;83.04;99752.00;6252642;22;44842;-87
2023/10/24 08:32:50;;;;;;;;;2.00;2.00;;;;;17.23;82.80;99747.56;6252731;22;47187;-88
2023/10/24 08:35:53;;;;;;;;;3.75;2.75;;;;;17.70;82.05;99748.84;6254228;22;44988;-88
2023/10/24 08:38:46;;;;;;;;;1.75;1.25;;;;;17.66;82.01;99752.56;6252470;22;45400;-85
2023/10/24 08:41:14;;;;;;;;;4.00;3.00;;;;;17.40;81.54;99724.66;6253268;22;45530;-88
2023/10/24 08:43:47;;;;;;;;;1.75;1.00;;;;;17.46;81.68;99730.78;6250237;22;47768;-88
2023/10/24 08:46:36;;;;;;;;;3.00;2.00;;;;;17.39;80.92;99730.97;6247866;22;45474;-86
2023/10/24 08:49:11;;;;;;;;;4.25;3.25;;;;;17.52;81.03;99734.16;6221675;22;44793;-90
2023/10/24 08:51:57;;;;;;;;;2.25;2.25;;;;;17.73;80.72;99747.88;6223141;22;45314;-86
2023/10/24 08:54:25;;;;;;;;;5.00;5.00;;;;;17.49;80.86;99745.03;6225961;22;46451;-86
2023/10/24 08:56:51;;;;;;;;;3.50;3.25;;;;;17.47;81.06;99725.38;6223823;22;45273;-86
2023/10/24 08:59:20;;;;;;;;;2.75;2.75;;;;;17.79;81.18;99763.81;6222706;22;45474;-85
2023/10/24 09:01:49;;;;;;;;;4.00;3.00;;;;;17.90;81.07;99772.47;6249389;22;45367;-86
2023/10/24 09:04:22;;;;;;;;;2.00;2.00;;;;;17.86;79.58;99753.78;6250474;22;47136;-85
2023/10/24 09:06:49;;;;;;;;;4.50;3.75;;;;;17.97;80.39;99771.31;6231639;22;45614;-86
2023/10/24 09:09:19;;;;;;;;;3.00;1.75;;;;;17.87;79.47;99767.16;6223221;22;45387;-85
2023/10/24 09:11:59;;;;;;;;;1.00;1.00;;;;;18.12;78.78;99775.34;6224017;22;44765;-85
2023/10/24 09:14:28;;;;;;;;;1.50;1.25;;;;;17.87;79.27;99742.09;6226773;22;45426;-82
2023/10/24 09:17:20;;;;;;;;;2.00;2.00;;;;;18.11;78.56;99762.81;6252066;22;45307;-85
2023/10/24 09:19:49;;;;;;;;;3.75;2.00;;;;;17.96;77.75;99777.66;6253583;22;45399;-86
2023/10/24 09:22:19;;;;;;;;;3.00;2.00;;;;;18.15;78.15;99786.00;6228985;22;44878;-85
2023/10/24 09:28:18;;;;;;;;;3.00;2.00;;;;;18.34;77.27;99782.69;6217060;22;45188;-84
2023/10/24 09:30:45;;;;;;;;;1.00;1.00;;;;;18.15;77.37;99780.63;6223934;22;45299;-88
2023/10/24 09:33:11;;;;;;;;;3.00;1.00;;;;;18.07;77.35;99762.97;6199822;22;45337;-87
2023/10/24 09:35:37;;;;;;;;;4.00;2.00;;;;;18.29;77.23;99782.00;6250355;22;47862;-84
2023/10/24 09:38:58;;;;;;;;;1.00;1.00;;;;;18.53;76.66;99789.25;6226244;22;45344;-81
2023/10/24 09:41:24;;;;;;;;;1.00;1.00;;;;;18.28;76.06;99782.91;6248534;22;45275;-86
2023/10/24 09:44:19;;;;;;;;;;;;;;;;;;;;;
2023/10/24 09:56:29;;;;;;;;;2.25;1.75;;;;;18.75;74.88;99764.28;6213017;22;45587;-85
2023/10/24 09:58:55;;;;;;;;;2.00;2.00;;;;;18.65;73.75;99773.59;6207712;22;46497;-83
2023/10/24 10:01:22;;;;;;;;;4.50;1.75;;;;;18.49;73.82;99747.19;6198155;22;44841;-87
2023/10/24 10:04:00;;;;;;;;;2.50;2.00;;;;;18.79;73.89;99768.66;6204824;22;45380;-86
2023/10/24 10:06:34;;;;;;;;;1.25;1.25;;;;;18.88;73.35;99779.06;6236962;22;45586;-86
2023/10/24 10:09:03;;;;;;;;;1.75;1.75;;;;;18.50;72.96;99748.97;6211709;22;47236;-85
2023/10/24 10:15:29;;;;;;;;;3.25;3.25;;;;;19.12;72.97;99776.44;6238830;22;44845;-84
2023/10/24 10:19:01;;;;;;;;;1.00;1.00;;;;;19.17;70.79;99777.16;6237959;22;44816;-87
2023/10/24 10:21:47;;;;;;;;;3.00;2.00;;;;;18.82;71.48;99730.81;6211098;22;46678;-86
2023/10/24 10:24:44;;;;;;;;;5.00;2.00;;;;;19.18;71.16;99787.00;6201039;22;45321;-87
2023/10/24 10:31:09;;;;;;;;;3.25;2.50;;;;;19.34;70.60;99780.09;6228163;22;45320;-88
2023/10/24 10:33:38;;;;;;;;;2.25;2.25;;;;;19.12;69.94;99781.84;6202274;22;47750;-87
2023/10/24 10:39:11;;;;;;;;;4.00;4.00;;;;;19.37;69.65;99781.81;6149133;22;46570;-86
2023/10/24 10:41:46;;;;;;;;;3.00;2.50;;;;;18.93;68.50;99741.22;6204809;22;44884;-84
2023/10/24 10:44:46;;;;;;;;;2.00;2.00;;;;;19.44;67.90;99777.06;6231112;22;45192;-85
2023/10/24 10:47:18;;;;;;;;;1.75;1.75;;;;;19.28;68.59;99766.84;6203342;22;44715;-84
2023/10/24 10:49:59;;;;;;;;;2.75;1.00;;;;;19.32;67.66;99752.31;6199257;22;44728;-83
2023/10/24 10:53:16;;;;;;;;;1.00;1.00;;;;;19.45;67.36;99759.94;6203990;22;44863;-85
2023/10/24 10:58:59;;;;;;;;;2.00;2.00;;;;;19.33;66.83;99737.91;6224911;22;44922;-82
2023/10/24 11:01:43;;;;;;;;;1.00;1.00;;;;;19.56;66.47;99755.91;6255029;22;44813;-84
2023/10/24 11:04:58;;;;;;;;;3.50;2.00;;;;;19.64;66.08;99757.44;6258896;22;44950;-83
2023/10/24 11:11:18;;;;;;;;;2.25;2.25;;;;;19.76;66.23;99765.06;6268294;22;45201;-82
2023/10/24 11:14:20;;;;;;;;;2.50;1.50;;;;;19.90;66.23;99778.91;6232610;22;45354;-84
2023/10/24 11:16:49;;;;;;;;;3.00;2.75;;;;;19.89;65.01;99762.75;6229001;22;45844;-87
2023/10/24 11:19:24;;;;;;;;;1.75;1.25;;;;;20.13;65.42;99767.16;6229041;22;46858;-87
2023/10/24 11:21:56;;;;;;;;;3.50;1.50;;;;;19.96;65.09;99743.56;6229972;22;45280;-86
2023/10/24 11:24:23;;;;;;;;;2.75;2.00;;;;;20.17;64.63;99765.22;6259187;22;45303;-85
2023/10/24 11:27:04;;;;;;;;;4.00;2.00;;;;;20.28;64.59;99740.47;6232648;22;45376;-86
2023/10/24 11:29:31;;;;;;;;;2.00;1.00;;;;;20.13;64.65;99753.66;6230937;22;46785;-87
2023/10/24 11:32:09;;;;;;;;;4.20;2.00;;;;;20.38;63.92;99772.44;6233325;22;44910;-87
2023/10/24 11:34:37;;;;;;;;;1.50;1.50;;;;;20.48;64.10;99755.81;6262980;22;45170;-85
2023/10/24 11:37:02;;;;;;;;;2.25;2.00;;;;;20.42;62.01;99751.59;6232688;22;44743;-85
2023/10/24 11:39:33;;;;;;;;;3.50;3.50;;;;;20.54;63.36;99748.34;6226511;22;47073;-86
2023/10/24 11:41:59;;;;;;;;;4.25;2.75;;;;;20.78;62.42;99759.06;6257862;22;45232;-85
2023/10/24 11:44:27;;;;;;;;;2.00;2.00;;;;;21.06;62.52;99718.16;6234343;22;45281;-85
2023/10/24 11:46:54;;;;;;;;;4.25;2.75;;;;;21.15;62.35;99750.19;6231561;22;45490;-84
2023/10/24 11:49:34;;;;;;;;;0.75;0.75;;;;;21.38;59.34;99751.84;6226917;22;47136;-85
2023/10/24 11:52:01;;;;;;;;;1.50;1.50;;;;;20.95;60.59;99729.47;6255155;22;45262;-84
2023/10/24 11:54:36;;;;;;;;;1.00;0.25;;;;;21.20;60.62;99736.47;6257292;22;45442;-87
2023/10/24 11:57:05;;;;;;;;;1.75;1.75;;;;;20.84;60.47;99729.06;6227814;22;44836;-86
2023/10/24 11:59:34;;;;;;;;;3.50;2.50;;;;;21.13;60.35;99735.00;6221207;22;48061;-86
2023/10/24 12:02:04;;;;;;;;;1.00;1.00;;;;;21.15;60.46;99739.38;6219925;22;45309;-86
2023/10/24 12:04:33;;;;;;;;;1.75;0.50;;;;;20.88;59.96;99741.50;6221298;22;44862;-86
2023/10/24 12:07:55;;;;;;;;;0.00;0.00;;;;;20.97;59.98;99741.09;6228157;22;44755;-87
2023/10/24 12:10:20;;;;;;;;;1.75;1.50;;;;;20.49;60.40;99738.69;6224256;22;45472;-86
2023/10/24 12:12:56;;;;;;;;;1.50;1.00;;;;;20.49;60.14;99747.66;6226169;22;45480;-86
2023/10/24 12:15:22;;;;;;;;;1.50;1.00;;;;;20.38;60.17;99731.06;6232070;22;44837;-81
2023/10/24 12:17:56;;;;;;;;;1.00;1.00;;;;;20.26;60.42;99721.66;6238243;22;44778;-81
2023/10/24 12:20:33;;;;;;;;;2.75;1.50;;;;;20.26;60.70;99731.53;6226829;22;45002;-82
2023/10/24 12:22:58;;;;;;;;;1.00;1.00;;;;;20.30;60.82;99735.88;6264718;22;44801;-82
2023/10/24 12:25:24;;;;;;;;;2.00;2.00;;;;;20.29;61.11;99729.59;6237434;22;44831;-81